createdAt,value
2023-07-10T00:01:36.872Z,4.97
2023-07-10T00:11:39.695Z,4.60
2023-07-10T00:21:41.961Z,5.33
2023-07-10T00:31:43.802Z,4.60
2023-07-10T00:41:49.297Z,5.20
2023-07-10T00:52:06.761Z,4.70
2023-07-10T01:02:08.509Z,5.57
2023-07-10T01:12:10.413Z,5.20
2023-07-10T01:22:12.334Z,5.10
2023-07-10T01:32:17.854Z,5.10
2023-07-10T01:42:20.088Z,5.40
2023-07-10T01:52:23.372Z,5.07
2023-07-10T02:02:25.268Z,4.97
2023-07-10T02:12:27.119Z,5.03
2023-07-10T02:22:29.097Z,4.80
2023-07-10T02:32:30.867Z,5.10
2023-07-10T02:42:32.624Z,5.03
2023-07-10T02:52:34.350Z,5.20
2023-07-10T03:02:36.351Z,5.53
2023-07-10T03:12:38.161Z,4.90
2023-07-10T03:22:39.969Z,4.97
2023-07-10T03:32:41.760Z,5.43
2023-07-10T03:42:43.582Z,5.80
2023-07-10T03:52:45.311Z,7.07
2023-07-10T04:02:47.015Z,6.03
2023-07-10T04:12:48.722Z,6.40
2023-07-10T04:22:50.430Z,5.13
2023-07-10T04:32:52.261Z,5.90
2023-07-10T04:42:55.720Z,7.90
2023-07-10T04:52:57.409Z,5.70
2023-07-10T05:02:59.109Z,6.10
2023-07-10T05:13:00.875Z,6.70
2023-07-10T05:23:02.690Z,6.60
2023-07-10T05:33:07.028Z,8.10
2023-07-10T05:43:10.318Z,6.83
2023-07-10T05:53:12.072Z,4.97
2023-07-10T06:03:13.942Z,5.13
2023-07-10T06:13:15.933Z,4.87
2023-07-10T06:23:17.653Z,6.00
2023-07-10T06:33:19.441Z,6.07
2023-07-10T06:43:21.717Z,5.57
2023-07-10T06:53:27.031Z,6.03
2023-07-10T07:03:30.407Z,5.67
2023-07-10T07:13:32.130Z,6.00
2023-07-10T07:23:33.839Z,5.50
2023-07-10T07:33:35.600Z,6.43
2023-07-10T07:43:37.356Z,6.23
2023-07-10T07:53:42.264Z,6.37
2023-07-10T08:03:44.095Z,6.23
2023-07-10T08:13:46.043Z,5.73
2023-07-10T08:23:47.860Z,5.60
2023-07-10T08:33:49.672Z,5.43
2023-07-10T08:43:52.003Z,5.53
2023-07-10T08:54:04.727Z,5.97
2023-07-10T09:04:12.399Z,5.95
2023-07-10T09:14:51.909Z,6.93
2023-07-10T09:24:54.950Z,7.10
2023-07-10T09:34:59.947Z,8.07
2023-07-10T09:45:01.907Z,8.07
2023-07-10T09:55:09.686Z,7.85
2023-07-10T10:05:16.440Z,9.03
2023-07-10T10:15:29.144Z,9.70
2023-07-10T10:25:38.628Z,8.40
2023-07-10T10:35:46.062Z,8.85
2023-07-10T10:45:55.930Z,8.88
2023-07-10T10:56:26.277Z,9.05
2023-07-10T11:06:39.362Z,9.27
2023-07-10T11:16:41.689Z,9.40
2023-07-10T11:26:43.936Z,9.93
2023-07-10T11:36:48.202Z,9.68
2023-07-10T11:47:01.721Z,9.75
2023-07-10T11:57:15.998Z,7.95
2023-07-10T12:07:18.284Z,9.10
2023-07-10T12:37:29.998Z,8.10
2023-07-10T12:47:39.076Z,7.45
2023-07-10T12:57:50.143Z,6.28
2023-07-10T13:07:55.334Z,6.97
2023-07-10T13:17:57.350Z,7.22
2023-07-10T13:27:59.302Z,7.53
2023-07-10T13:38:01.119Z,6.70
2023-07-10T13:48:09.094Z,6.40
2023-07-10T13:58:20.545Z,6.20
2023-07-10T14:08:27.507Z,6.57
2023-07-10T14:18:30.459Z,7.90
2023-07-10T14:28:32.128Z,8.02
2023-07-10T14:38:33.857Z,7.28
2023-07-10T14:48:35.932Z,7.07
2023-07-10T14:58:38.553Z,6.63
2023-07-10T15:08:40.294Z,6.38
2023-07-10T15:18:43.246Z,5.68
2023-07-10T15:28:44.967Z,6.95
2023-07-10T15:38:47.249Z,6.22
2023-07-10T15:48:49.136Z,6.45
2023-07-10T15:58:50.875Z,6.55
2023-07-10T16:08:52.609Z,5.70
2023-07-10T16:18:55.298Z,5.75
2023-07-10T16:28:57.178Z,6.30
2023-07-10T16:38:58.899Z,6.15
2023-07-10T16:49:00.725Z,7.63
2023-07-10T16:59:02.427Z,5.97
2023-07-10T17:09:05.738Z,6.05
2023-07-10T17:19:07.735Z,6.32
2023-07-10T17:29:18.509Z,6.53
2023-07-10T17:39:27.070Z,6.07
2023-07-10T17:49:33.254Z,6.55
2023-07-10T17:59:35.977Z,6.20
2023-07-10T18:09:37.759Z,6.22
2023-07-10T18:19:39.885Z,6.78
2023-07-10T18:29:42.135Z,6.30
2023-07-10T18:39:44.873Z,6.97
2023-07-10T18:49:46.698Z,6.38
2023-07-10T18:59:48.514Z,6.95
2023-07-10T19:09:50.450Z,6.72
2023-07-10T19:19:54.211Z,7.20
2023-07-10T19:29:56.020Z,7.20
2023-07-10T19:39:59.022Z,7.13
2023-07-10T19:50:00.766Z,7.20
2023-07-10T20:00:02.778Z,7.20
2023-07-10T20:10:04.977Z,7.10
2023-07-10T20:20:37.361Z,7.70
2023-07-10T20:30:39.286Z,7.97
2023-07-10T20:40:41.230Z,8.03
2023-07-10T20:50:43.257Z,7.77
2023-07-10T21:00:46.629Z,7.37
2023-07-10T21:10:49.894Z,7.70
2023-07-10T21:20:52.277Z,8.37
2023-07-10T21:30:54.136Z,8.17
2023-07-10T21:40:57.695Z,8.20
2023-07-10T21:51:02.291Z,7.40
2023-07-10T22:01:04.125Z,8.53
2023-07-10T22:11:32.280Z,7.70
2023-07-10T22:21:35.752Z,7.50
2023-07-10T22:31:40.939Z,8.40
2023-07-10T22:41:44.374Z,7.47
2023-07-10T22:51:46.172Z,7.47
2023-07-10T23:01:50.036Z,7.57
2023-07-10T23:11:52.139Z,8.07
2023-07-10T23:21:53.897Z,8.17
2023-07-10T23:31:55.662Z,8.93
2023-07-10T23:41:57.385Z,8.70
2023-07-10T23:51:59.081Z,8.53
